createdAt,value
2022-08-03T00:06:03.985Z,7.5
2022-08-03T00:35:59.841Z,5.4
2022-08-03T01:06:05.713Z,6.8
2022-08-03T01:36:07.015Z,8.5
2022-08-03T02:06:59.691Z,5.3
2022-08-03T02:36:10.799Z,7.6
2022-08-03T03:06:13.021Z,8.9
2022-08-03T03:36:17.881Z,9
2022-08-03T04:06:28.851Z,9.5
2022-08-03T04:36:20.782Z,7.2
2022-08-03T05:06:21.352Z,7.2
2022-08-03T05:36:23.617Z,10.8
2022-08-03T06:06:28.280Z,14.3
2022-08-03T06:36:31.269Z,12.2
2022-08-03T07:06:31.382Z,12.2
2022-08-03T07:36:33.755Z,17.3
2022-08-03T08:06:36.920Z,11.4
2022-08-03T08:36:40.638Z,16.8
2022-08-03T09:06:58.629Z,19.1
2022-08-03T09:36:49.422Z,11.8
2022-08-03T10:07:02.787Z,11.7
2022-08-03T10:37:00.566Z,10.8
2022-08-03T11:07:13.606Z,12.8
2022-08-03T11:37:19.700Z,9.4
2022-08-03T12:07:13.766Z,12.1
2022-08-03T12:37:23.209Z,8.6
2022-08-03T13:07:25.628Z,7.7
2022-08-03T13:37:31.884Z,9.2
2022-08-03T14:07:37.144Z,8
2022-08-03T14:37:43.337Z,8.4
2022-08-03T15:07:49.366Z,6.6
2022-08-03T15:37:57.999Z,8.8
2022-08-03T16:08:03.602Z,7.5
2022-08-03T16:38:09.647Z,6.1
2022-08-03T17:08:12.696Z,6.9
2022-08-03T17:38:22.460Z,4.8
2022-08-03T18:08:27.297Z,5.1
2022-08-03T18:38:27.509Z,7.1
2022-08-03T19:08:37.437Z,3.9
2022-08-03T19:38:35.655Z,3.4
2022-08-03T20:08:41.821Z,3.9
2022-08-03T20:38:47.282Z,2.6
2022-08-03T21:08:49.302Z,5.2
2022-08-03T21:38:56.262Z,2.4
2022-08-03T22:08:54.181Z,2.5
2022-08-03T22:38:56.858Z,3.5
2022-08-03T23:09:00.397Z,5.4
2022-08-03T23:39:05.345Z,12
